Deer Lake, Washington
Current Conditions -  °F | °C
As of 7:53 PM on Saturday 22 Nov 2014 (Local Time) from KDEW Reporting Station
Clear Clear  
Wind Chill: 26°   Ceiling: Unl
Heat Index: 26°   Visibility: 10mi
Dew Point: 25°   Wind: 3mph
Humidity: 96%   Direction: 70°ENE
Pressure: 29.86"   Gusts: NA
Location:  48.1077°N, 117.582°W
Report Text: KDEW 230353Z AUTO 07003KT 10SM CLR M03/M04 A2986 RMK AO2 SLP134 I1000 T10331039
Loading
Personal Weather Stations






























Interactive Weather Map New forecast layout! Learn more

10-Day Weather Forecast

Advertisements
Track Severe Weather on mobile